Time;durP1;ratioP1;P1;durP2;ratioP2;P2;SDS_P1;SDS_P2;PMS_P1;PMS_P2;Temp;Humidity;BMP_temperature;BMP_pressure;BME280_temperature;BME280_humidity;BME280_pressure;Samples;Min_cycle;Max_cycle;Signal;HPM_P1;HPM_P2
2022/05/06 00:01:38;;;;;;;30.52;15.02;;;;;;;9.60;82.94;102462.31;5018220;28;20477;-75
2022/05/06 00:04:04;;;;;;;30.20;14.50;;;;;;;9.57;84.13;102473.03;5017520;28;20121;-75
2022/05/06 00:06:30;;;;;;;25.17;14.15;;;;;;;9.51;83.52;102467.34;5017902;28;20048;-75
2022/05/06 00:08:56;;;;;;;25.75;13.48;;;;;;;9.55;82.88;102474.94;5010463;28;20025;-75
2022/05/06 00:11:22;;;;;;;24.95;13.80;;;;;;;9.53;81.75;102474.19;5018235;28;20432;-75
2022/05/06 00:13:48;;;;;;;24.58;13.13;;;;;;;9.51;80.88;102478.72;5023519;28;20025;-75
2022/05/06 00:16:13;;;;;;;24.42;13.30;;;;;;;9.48;80.45;102476.28;4998073;28;20622;-75
2022/05/06 00:18:39;;;;;;;25.15;13.60;;;;;;;9.46;80.77;102486.94;5022282;28;20034;-75
2022/05/06 00:21:04;;;;;;;26.13;14.43;;;;;;;9.43;80.90;102487.16;5012526;28;20033;-75
2022/05/06 00:23:30;;;;;;;27.45;13.32;;;;;;;9.38;82.87;102483.97;5022903;28;20494;-75
2022/05/06 00:25:56;;;;;;;28.63;14.70;;;;;;;9.27;84.91;102486.47;5016584;28;20034;-75
2022/05/06 00:28:21;;;;;;;28.88;14.48;;;;;;;9.21;85.95;102489.50;4994254;28;20030;-75
2022/05/06 00:30:47;;;;;;;30.70;15.05;;;;;;;9.10;86.88;102479.66;5013607;28;20178;-75
2022/05/06 00:33:13;;;;;;;28.40;14.32;;;;;;;9.08;86.42;102492.13;5021228;28;20491;-75
2022/05/06 00:35:40;;;;;;;25.45;13.30;;;;;;;9.04;84.70;102488.81;5013694;28;20029;-75
2022/05/06 00:38:05;;;;;;;26.33;15.20;;;;;;;9.00;84.71;102476.78;5019757;28;20030;-75
2022/05/06 00:40:31;;;;;;;30.30;15.60;;;;;;;9.03;86.10;102492.38;5015378;28;20662;-75
2022/05/06 00:42:56;;;;;;;29.63;16.95;;;;;;;8.92;87.62;102476.44;5012725;28;20018;-75
2022/05/06 00:45:23;;;;;;;29.65;14.30;;;;;;;8.81;87.00;102463.97;5016862;28;20511;-75
2022/05/06 00:47:49;;;;;;;26.00;13.35;;;;;;;8.94;85.01;102486.88;5013750;28;20026;-75
2022/05/06 00:50:16;;;;;;;27.65;16.58;;;;;;;8.79;84.83;102470.28;5017966;28;20383;-75
2022/05/06 00:52:41;;;;;;;29.35;15.55;;;;;;;8.96;85.85;102488.47;5014640;28;20091;-75
2022/05/06 00:55:08;;;;;;;25.35;14.32;;;;;;;8.92;85.89;102478.22;5022899;28;20034;-75
2022/05/06 00:57:33;;;;;;;27.73;15.07;;;;;;;8.81;86.66;102466.59;5009996;28;20033;-75
2022/05/06 01:00:19;;;;;;;23.58;13.55;;;;;;;8.73;87.94;102465.41;5022295;28;20029;-75
2022/05/06 01:02:46;;;;;;;30.63;14.80;;;;;;;8.74;88.11;102467.94;5015065;28;20520;-75
2022/05/06 01:05:15;;;;;;;26.95;15.48;;;;;;;8.68;89.07;102462.22;5021675;28;20028;-75
2022/05/06 01:07:43;;;;;;;26.95;14.38;;;;;;;8.65;90.53;102486.97;5022274;28;20631;-75
2022/05/06 01:10:09;;;;;;;34.00;16.40;;;;;;;8.40;91.62;102464.81;5018077;28;20355;-75
2022/05/06 01:12:34;;;;;;;31.83;16.88;;;;;;;8.50;92.03;102478.25;5022729;28;20052;-75
2022/05/06 01:14:59;;;;;;;23.35;12.98;;;;;;;8.51;90.93;102487.81;5023465;28;20041;-75
2022/05/06 01:17:25;;;;;;;33.08;15.38;;;;;;;8.51;89.10;102474.66;5022077;28;20037;-74
2022/05/06 01:19:51;;;;;;;29.02;14.73;;;;;;;8.48;89.92;102471.41;5019249;28;20037;-74
2022/05/06 01:22:17;;;;;;;31.33;16.58;;;;;;;8.46;91.34;102479.38;5016331;28;20022;-74
2022/05/06 01:24:44;;;;;;;27.20;13.68;;;;;;;8.42;92.17;102477.88;5026988;28;20045;-75
2022/05/06 01:27:22;;;;;;;29.40;15.30;;;;;;;8.36;92.40;102472.94;5015960;28;20041;-75
2022/05/06 01:29:51;;;;;;;27.67;15.13;;;;;;;8.31;92.73;102467.16;5013067;28;20037;-74
2022/05/06 01:32:18;;;;;;;29.38;14.82;;;;;;;8.25;93.14;102473.63;5017369;28;20030;-74
2022/05/06 01:34:44;;;;;;;32.00;16.35;;;;;;;8.11;93.77;102455.22;5019746;28;20022;-74
2022/05/06 01:37:13;;;;;;;31.38;15.88;;;;;;;8.08;94.19;102448.38;5006714;28;20025;-74
2022/05/06 01:39:39;;;;;;;33.40;16.83;;;;;;;8.03;94.38;102450.44;5017025;28;20059;-75
2022/05/06 01:42:12;;;;;;;29.17;16.65;;;;;;;8.12;94.78;102473.56;5018425;28;20034;-75
2022/05/06 01:44:43;;;;;;;32.60;16.35;;;;;;;8.01;95.45;102454.94;5017151;28;20055;-75
2022/05/06 01:47:14;;;;;;;30.92;16.05;;;;;;;8.07;94.71;102457.19;5020480;28;20512;-75
2022/05/06 01:49:41;;;;;;;30.08;15.50;;;;;;;8.18;94.90;102473.16;5016947;28;20373;-75
2022/05/06 01:52:08;;;;;;;29.80;15.57;;;;;;;8.08;93.86;102458.03;5019428;28;20521;-75
2022/05/06 01:54:34;;;;;;;28.88;15.65;;;;;;;8.19;94.03;102482.75;5017119;28;20025;-75
2022/05/06 01:57:00;;;;;;;26.38;15.18;;;;;;;8.01;93.68;102461.06;5016317;28;20101;-74
2022/05/06 01:59:25;;;;;;;25.52;14.50;;;;;;;7.95;94.77;102452.72;5024896;28;20437;-75
2022/05/06 02:01:51;;;;;;;28.98;14.80;;;;;;;8.10;95.25;102485.09;5008488;28;20088;-75
2022/05/06 02:07:03;;;;;;;26.27;13.93;;;;;;;8.06;94.60;102473.94;5018480;28;20061;-75
2022/05/06 02:09:28;;;;;;;27.42;13.57;;;;;;;8.07;94.90;102483.50;5001716;28;20026;-75
2022/05/06 02:11:53;;;;;;;29.02;14.02;;;;;;;8.07;95.00;102483.50;5017211;28;20524;-74
2022/05/06 02:14:19;;;;;;;26.30;13.88;;;;;;;8.08;94.88;102485.19;5019419;28;20102;-74
2022/05/06 02:16:45;;;;;;;22.73;13.32;;;;;;;8.09;94.05;102486.03;5017089;28;20262;-74
2022/05/06 02:19:10;;;;;;;27.23;13.20;;;;;;;8.07;92.60;102483.50;5021019;28;20083;-74
2022/05/06 02:21:36;;;;;;;22.05;13.25;;;;;;;7.97;91.89;102471.84;5016257;28;20164;-75
2022/05/06 02:24:01;;;;;;;26.70;12.73;;;;;;;8.02;91.75;102475.06;5018405;28;20030;-75
2022/05/06 02:26:27;;;;;;;24.77;12.50;;;;;;;8.04;91.91;102483.69;5017565;28;20449;-74
2022/05/06 02:28:52;;;;;;;23.15;13.30;;;;;;;7.90;92.82;102468.72;5015576;28;20040;-74
2022/05/06 02:34:01;;;;;;;26.10;12.05;;;;;;;7.92;91.49;102487.88;5015581;28;20102;-75
2022/05/06 02:36:27;;;;;;;22.55;11.40;;;;;;;7.76;90.36;102452.97;5019211;28;20116;-74
2022/05/06 02:38:52;;;;;;;24.63;11.32;;;;;;;7.94;89.73;102482.56;5015164;28;20038;-75
2022/05/06 02:41:17;;;;;;;23.58;11.85;;;;;;;7.95;89.83;102479.00;5020740;28;20025;-74
2022/05/06 02:43:43;;;;;;;22.05;12.23;;;;;;;7.97;90.30;102482.34;5015152;28;20045;-75
2022/05/06 02:46:08;;;;;;;21.50;12.27;;;;;;;7.89;92.19;102466.22;5022763;28;20508;-75
2022/05/06 02:48:34;;;;;;;22.98;13.27;;;;;;;7.87;93.32;102466.31;5018521;28;20026;-75
2022/05/06 02:50:59;;;;;;;20.83;12.07;;;;;;;7.89;94.80;102468.84;5019784;28;20426;-75
2022/05/06 02:53:25;;;;;;;24.88;12.60;;;;;;;7.87;95.77;102478.59;5018697;28;20026;-74
2022/05/06 02:55:50;;;;;;;31.88;14.27;;;;;;;7.66;97.06;102447.41;5000573;28;20670;-74
2022/05/06 02:58:16;;;;;;;25.05;13.20;;;;;;;7.75;97.85;102470.53;5016840;28;20080;-74
2022/05/06 03:00:41;;;;;;;20.88;12.35;;;;;;;7.72;97.86;102475.94;5018432;28;20305;-75
2022/05/06 03:03:07;;;;;;;23.85;13.57;;;;;;;7.72;96.25;102473.31;5018250;28;20030;-74
2022/05/06 03:05:32;;;;;;;22.42;12.98;;;;;;;7.64;96.81;102472.91;5014989;28;20128;-74
2022/05/06 03:07:58;;;;;;;20.45;11.02;;;;;;;7.54;97.09;102448.16;5024343;28;20047;-74
2022/05/06 03:10:23;;;;;;;23.20;12.13;;;;;;;7.47;95.20;102447.66;5019533;28;20124;-74
2022/05/06 03:12:50;;;;;;;23.02;12.40;;;;;;;7.66;94.26;102470.22;5019368;28;20722;-74
2022/05/06 03:15:15;;;;;;;22.00;11.10;;;;;;;7.55;94.39;102450.66;5012376;28;20112;-74
2022/05/06 03:17:41;;;;;;;22.65;11.57;;;;;;;7.65;95.42;102465.91;5016017;28;20041;-75
2022/05/06 03:20:08;;;;;;;15.40;10.05;;;;;;;7.71;95.34;102478.66;5015872;28;20393;-74
2022/05/06 03:22:39;;;;;;;19.80;11.90;;;;;;;7.74;95.01;102475.88;4996110;28;20060;-74
2022/05/06 03:25:05;;;;;;;23.65;12.82;;;;;;;7.72;96.18;102470.69;5016699;28;20481;-74
2022/05/06 03:30:14;;;;;;;20.40;12.95;;;;;;;7.78;96.25;102478.22;5016447;28;20048;-74
2022/05/06 03:32:39;;;;;;;22.77;12.40;;;;;;;7.81;95.10;102466.66;5012735;28;20417;-74
2022/05/06 03:35:06;;;;;;;21.38;12.95;;;;;;;7.87;95.77;102468.09;5016433;28;20226;-74
2022/05/06 03:37:33;;;;;;;26.50;13.68;;;;;;;7.88;96.92;102461.88;5016901;28;20029;-75
2022/05/06 03:39:59;;;;;;;22.05;13.65;;;;;;;7.86;97.71;102463.75;4999395;28;20103;-75
2022/05/06 03:42:24;;;;;;;23.85;12.80;;;;;;;7.88;98.46;102465.34;5013840;28;20034;-75
2022/05/06 03:44:49;;;;;;;29.95;15.32;;;;;;;7.91;99.18;102464.34;5014018;28;20031;-74
2022/05/06 03:47:15;;;;;;;29.45;17.17;;;;;;;7.87;99.74;102458.41;5016393;28;20031;-74
2022/05/06 03:49:40;;;;;;;35.90;18.67;;;;;;;7.92;100.00;102460.75;5016029;28;20655;-74
2022/05/06 03:52:06;;;;;;;25.92;16.48;;;;;;;7.97;100.00;102471.84;4998300;28;20169;-74
2022/05/06 03:54:33;;;;;;;32.00;17.58;;;;;;;7.95;100.00;102469.31;5016226;28;20129;-74
2022/05/06 03:56:58;;;;;;;33.10;16.80;;;;;;;7.96;100.00;102465.75;5014903;28;20044;-74
2022/05/06 03:59:24;;;;;;;27.05;17.02;;;;;;;7.79;100.00;102443.09;5017324;28;20030;-74
2022/05/06 04:01:49;;;;;;;31.33;17.10;;;;;;;7.85;100.00;102451.56;4997901;28;20494;-74
2022/05/06 04:04:15;;;;;;;33.20;16.50;;;;;;;7.96;100.00;102459.63;5014681;28;20042;-74
2022/05/06 04:06:41;;;;;;;35.38;17.55;;;;;;;7.91;100.00;102464.34;5017137;28;20382;-74
2022/05/06 04:09:07;;;;;;;28.15;16.38;;;;;;;7.88;100.00;102469.78;5015587;28;20095;-74
2022/05/06 04:11:32;;;;;;;34.80;18.75;;;;;;;7.87;100.00;102462.84;5016025;28;20534;-74
2022/05/06 04:13:58;;;;;;;32.28;18.95;;;;;;;7.76;100.00;102442.44;5020562;28;20044;-75
2022/05/06 04:16:24;;;;;;;40.38;19.85;;;;;;;7.72;100.00;102439.16;5012649;28;20113;-75
2022/05/06 04:18:49;;;;;;;35.90;19.35;;;;;;;7.82;100.00;102463.97;4999416;28;20041;-74
2022/05/06 04:23:59;;;;;;;32.47;18.52;;;;;;;7.54;100.00;102450.78;5014960;28;20573;-74
2022/05/06 04:26:24;;;;;;;33.70;19.23;;;;;;;7.65;100.00;102468.53;5016916;28;20033;-73
2022/05/06 04:28:49;;;;;;;34.58;18.27;;;;;;;7.41;100.00;102448.03;5018761;28;20050;-74
2022/05/06 04:31:17;;;;;;;32.88;16.95;;;;;;;7.44;100.00;102447.00;5002296;28;20033;-74
2022/05/06 04:33:42;;;;;;;32.38;17.38;;;;;;;7.57;100.00;102468.97;5018055;28;20528;-74
2022/05/06 04:36:09;;;;;;;33.42;17.48;;;;;;;7.55;100.00;102470.84;5018812;28;20164;-74
2022/05/06 04:38:35;;;;;;;26.85;15.52;;;;;;;7.48;100.00;102473.00;5019643;28;20067;-73
2022/05/06 04:41:01;;;;;;;25.88;14.48;;;;;;;7.52;100.00;102477.13;5026909;28;20227;-74
2022/05/06 04:43:27;;;;;;;26.17;14.70;;;;;;;7.64;100.00;102465.03;4999610;28;20041;-75
2022/05/06 04:45:54;;;;;;;26.23;13.95;;;;;;;7.69;100.00;102475.31;5020154;28;20029;-74
2022/05/06 04:48:20;;;;;;;23.73;12.23;;;;;;;7.80;100.00;102481.59;5018676;28;20025;-73
2022/05/06 04:50:46;;;;;;;22.00;12.40;;;;;;;7.89;100.00;102484.63;5018524;28;20037;-73
2022/05/06 04:53:13;;;;;;;20.70;12.45;;;;;;;7.79;100.00;102485.16;5016985;28;20069;-73
2022/05/06 04:55:41;;;;;;;18.48;11.88;;;;;;;7.79;100.00;102481.69;5022278;28;20311;-75
2022/05/06 04:58:07;;;;;;;19.63;11.93;;;;;;;7.78;100.00;102485.25;5018925;28;20035;-74
2022/05/06 05:00:33;;;;;;;19.10;11.40;;;;;;;7.95;100.00;102487.72;5018338;28;20025;-74
2022/05/06 05:03:00;;;;;;;20.50;11.23;;;;;;;8.06;100.00;102494.09;5019263;28;20444;-74
2022/05/06 05:05:25;;;;;;;19.17;11.07;;;;;;;8.16;100.00;102488.19;5020106;28;20095;-75
2022/05/06 05:07:51;;;;;;;17.65;10.80;;;;;;;8.32;100.00;102495.13;5022801;28;20025;-75
2022/05/06 05:10:17;;;;;;;16.02;10.45;;;;;;;8.38;99.47;102486.88;5015489;28;20034;-75
2022/05/06 05:12:43;;;;;;;16.33;10.15;;;;;;;8.56;96.91;102501.56;5021961;28;20473;-75
2022/05/06 05:15:10;;;;;;;18.38;9.75;;;;;;;8.67;94.82;102507.91;5013806;28;20117;-74
2022/05/06 05:17:35;;;;;;;14.75;9.27;;;;;;;8.74;93.97;102514.50;4997910;28;20057;-74
2022/05/06 05:20:01;;;;;;;15.73;9.45;;;;;;;8.60;94.17;102487.25;4999141;28;20053;-75
2022/05/06 05:22:26;;;;;;;17.90;9.20;;;;;;;8.74;94.09;102501.34;5019014;28;20079;-74
2022/05/06 05:24:52;;;;;;;15.70;9.05;;;;;;;8.76;94.29;102488.91;5019973;28;20513;-75
2022/05/06 05:27:17;;;;;;;17.08;10.68;;;;;;;8.76;94.97;102492.38;5019117;28;20354;-74
2022/05/06 05:29:43;;;;;;;23.67;11.82;;;;;;;8.90;96.57;102509.91;5018617;28;20120;-75
2022/05/06 05:32:09;;;;;;;18.33;11.15;;;;;;;8.82;96.20;102480.63;5014029;28;20026;-76
2022/05/06 05:34:35;;;;;;;22.13;11.68;;;;;;;9.04;96.67;102506.41;5016992;28;20025;-76
2022/05/06 05:37:01;;;;;;;21.58;11.43;;;;;;;9.10;96.01;102500.72;5018878;28;20468;-76
2022/05/06 05:39:27;;;;;;;22.25;11.50;;;;;;;9.19;95.53;102483.47;5015344;28;20025;-76
2022/05/06 05:41:52;;;;;;;18.33;11.32;;;;;;;9.30;95.01;102481.00;5004252;28;20041;-76
2022/05/06 05:49:46;;;;;;;21.23;11.82;;;;;;;9.68;95.81;102502.16;5018650;28;20044;-76
2022/05/06 05:52:12;;;;;;;24.30;12.80;;;;;;;9.74;96.81;102492.16;5018362;28;20049;-76
2022/05/06 05:54:38;;;;;;;25.55;13.85;;;;;;;9.77;96.36;102479.59;5020910;28;20429;-76
2022/05/06 05:57:04;;;;;;;21.42;12.20;;;;;;;9.98;94.93;102502.81;5019804;28;20037;-76
2022/05/06 05:59:30;;;;;;;23.20;12.60;;;;;;;10.15;94.62;102515.69;5018723;28;20029;-76
2022/05/06 06:01:55;;;;;;;21.67;12.82;;;;;;;10.25;94.40;102505.31;5013591;28;20466;-76
2022/05/06 06:04:21;;;;;;;22.48;12.43;;;;;;;10.29;94.58;102504.19;5018811;28;20330;-76
2022/05/06 06:06:46;;;;;;;22.13;12.55;;;;;;;10.41;93.61;102505.09;5014679;28;20121;-75
2022/05/06 06:09:12;;;;;;;22.95;13.13;;;;;;;10.43;94.30;102490.88;5016625;28;20053;-75
2022/05/06 06:11:37;;;;;;;21.08;12.05;;;;;;;10.46;94.02;102482.72;5016045;28;20069;-75
2022/05/06 06:14:03;;;;;;;22.98;12.38;;;;;;;10.70;92.42;102497.78;5018444;28;20116;-75
2022/05/06 06:16:28;;;;;;;20.80;12.93;;;;;;;10.85;91.05;102503.75;5019446;28;20037;-74
2022/05/06 06:18:55;;;;;;;21.85;13.80;;;;;;;10.87;93.23;102510.59;5018719;28;20034;-75
2022/05/06 06:21:21;;;;;;;26.98;13.65;;;;;;;10.86;92.18;102513.34;5014264;28;20076;-76
2022/05/06 06:23:47;;;;;;;26.33;13.95;;;;;;;10.89;92.47;102515.78;5023136;28;20030;-75
2022/05/06 06:26:12;;;;;;;28.58;14.27;;;;;;;10.94;94.10;102503.06;5025795;28;20025;-75
2022/05/06 06:28:37;;;;;;;25.83;14.25;;;;;;;11.08;92.40;102508.22;5022104;28;20433;-75
2022/05/06 06:31:03;;;;;;;27.08;14.90;;;;;;;11.14;93.88;102508.69;5015228;28;20034;-74
2022/05/06 06:33:28;;;;;;;27.23;14.55;;;;;;;11.27;94.19;102512.13;5018418;28;20416;-75
2022/05/06 06:35:54;;;;;;;22.92;14.05;;;;;;;11.35;93.49;102512.41;5025567;28;20026;-75
2022/05/06 06:38:19;;;;;;;25.98;15.25;;;;;;;11.35;93.89;102506.28;5014066;28;20493;-74
2022/05/06 06:40:44;;;;;;;28.17;15.07;;;;;;;11.55;93.81;102518.00;5017752;28;20037;-75
2022/05/06 06:43:10;;;;;;;25.08;14.05;;;;;;;11.75;92.39;102519.97;5016904;28;20030;-74
2022/05/06 06:45:37;;;;;;;27.25;15.63;;;;;;;11.75;92.58;102493.50;5023453;28;20052;-74
2022/05/06 06:48:03;;;;;;;25.38;15.00;;;;;;;11.80;91.77;102501.09;5026774;28;20021;-75
2022/05/06 06:50:29;;;;;;;26.27;16.05;;;;;;;12.05;91.52;102526.56;5011454;28;20061;-78
2022/05/06 06:52:54;;;;;;;26.95;14.60;;;;;;;12.14;90.89;102526.66;5020528;28;20502;-75
2022/05/06 06:55:20;;;;;;;30.42;15.60;;;;;;;12.28;90.26;102527.41;5013254;28;20030;-75
2022/05/06 06:57:46;;;;;;;23.92;14.23;;;;;;;12.43;88.84;102528.00;5026726;28;20112;-76
2022/05/06 07:00:11;;;;;;;27.75;15.93;;;;;;;12.57;90.21;102533.06;5015429;28;20446;-75
2022/05/06 07:02:37;;;;;;;26.02;13.68;;;;;;;12.71;87.50;102535.44;5022818;28;20030;-76
2022/05/06 07:05:03;;;;;;;30.52;15.98;;;;;;;12.85;87.85;102530.88;5023659;28;20490;-75
2022/05/06 07:12:57;;;;;;;29.20;15.88;;;;;;;12.96;89.04;102538.78;5011398;28;20057;-75
2022/05/06 07:15:23;;;;;;;22.80;14.18;;;;;;;13.08;87.78;102537.75;5004020;28;20026;-74
2022/05/06 07:17:48;;;;;;;22.25;14.18;;;;;;;13.40;87.28;102547.59;5007256;28;20034;-76
2022/05/06 07:20:14;;;;;;;24.30;14.88;;;;;;;13.49;86.65;102548.63;5019503;28;20501;-75
2022/05/06 07:22:39;;;;;;;26.73;14.75;;;;;;;13.36;86.69;102540.84;5015927;28;20120;-75
2022/05/06 07:25:05;;;;;;;25.35;14.98;;;;;;;13.46;87.24;102549.72;5022959;28;20037;-76
2022/05/06 07:27:34;;;;;;;25.75;15.57;;;;;;;13.60;86.14;102550.38;4999066;28;20397;-75
2022/05/06 07:29:59;;;;;;;26.85;14.63;;;;;;;13.66;85.54;102553.38;5012455;28;20221;-75
2022/05/06 07:32:24;;;;;;;23.65;14.43;;;;;;;13.46;86.60;102546.25;5003957;28;20047;-75
2022/05/06 07:34:50;;;;;;;24.15;13.48;;;;;;;13.34;87.78;102529.53;5020563;28;20026;-74
2022/05/06 07:37:16;;;;;;;24.92;13.65;;;;;;;13.57;87.07;102554.97;4999135;28;20033;-75
2022/05/06 07:39:41;;;;;;;19.70;12.57;;;;;;;13.60;85.44;102540.59;5021108;28;20022;-75
2022/05/06 07:42:08;;;;;;;22.15;13.55;;;;;;;13.78;86.15;102547.03;5015759;28;20034;-75
2022/05/06 07:44:33;;;;;;;22.33;13.23;;;;;;;14.05;84.73;102556.28;5019385;28;20065;-75
2022/05/06 07:46:59;;;;;;;21.23;12.15;;;;;;;13.99;85.13;102552.31;5023812;28;20037;-75
2022/05/06 07:49:25;;;;;;;21.65;12.77;;;;;;;13.92;85.81;102553.81;4999863;28;20180;-75
2022/05/06 07:51:51;;;;;;;21.88;12.90;;;;;;;13.84;86.12;102553.63;5009260;28;20465;-75
2022/05/06 07:54:16;;;;;;;18.52;11.02;;;;;;;13.96;87.37;102546.44;5017237;28;20022;-75
2022/05/06 07:56:41;;;;;;;15.27;9.93;;;;;;;14.17;85.18;102549.06;5018281;28;20056;-75
2022/05/06 07:59:07;;;;;;;15.98;10.15;;;;;;;14.36;83.92;102535.88;5014250;28;20030;-75
2022/05/06 08:04:36;;;;;;;13.73;8.90;;;;;;;14.63;82.03;102526.47;5019512;28;20044;-75
2022/05/06 08:07:06;;;;;;;13.70;9.43;;;;;;;14.83;81.74;102548.66;4996986;28;20372;-76
2022/05/06 08:09:33;;;;;;;13.27;8.90;;;;;;;14.94;81.18;102547.72;5008218;28;20018;-75
2022/05/06 08:11:59;;;;;;;15.68;9.93;;;;;;;14.98;81.23;102551.75;5012123;28;20038;-75
2022/05/06 08:14:24;;;;;;;12.88;8.13;;;;;;;15.04;79.78;102519.28;5023938;28;20087;-75
2022/05/06 08:16:50;;;;;;;12.93;8.32;;;;;;;15.33;78.47;102555.69;5008422;28;20475;-75
2022/05/06 08:19:17;;;;;;;10.30;7.60;;;;;;;15.87;79.40;102548.13;5023201;28;20029;-75
2022/05/06 08:21:43;;;;;;;8.70;6.68;;;;;;;16.41;75.54;102546.56;5016429;28;20030;-75
2022/05/06 08:24:08;;;;;;;7.43;5.72;;;;;;;16.81;73.18;102543.59;5023003;28;20601;-76
2022/05/06 08:26:35;;;;;;;7.00;5.45;;;;;;;17.11;70.88;102548.72;5023479;28;20068;-75
2022/05/06 08:29:00;;;;;;;8.25;6.00;;;;;;;17.21;70.08;102539.66;5020467;28;20104;-76
2022/05/06 08:31:27;;;;;;;7.22;5.70;;;;;;;17.66;69.15;102549.38;5018892;28;20118;-76
2022/05/06 08:33:53;;;;;;;7.28;5.40;;;;;;;17.96;68.31;102543.75;5013635;28;20033;-76
2022/05/06 08:36:19;;;;;;;6.93;4.82;;;;;;;17.75;69.56;102531.59;5023293;28;20029;-76
2022/05/06 08:38:45;;;;;;;8.07;5.80;;;;;;;17.60;69.33;102550.00;4998972;28;20521;-76
2022/05/06 08:41:12;;;;;;;6.75;5.15;;;;;;;17.69;69.00;102543.72;5016231;28;20032;-76
2022/05/06 08:43:38;;;;;;;6.82;5.03;;;;;;;18.02;67.62;102541.28;5018747;28;20048;-76
2022/05/06 08:51:36;;;;;;;9.02;5.57;;;;;;;17.52;70.04;102539.25;5018173;28;20061;-75
2022/05/06 08:54:01;;;;;;;12.00;5.70;;;;;;;18.15;68.77;102543.53;5018820;28;20386;-76
2022/05/06 08:56:28;;;;;;;7.60;4.70;;;;;;;19.21;67.00;102545.75;5019855;28;20065;-76
2022/05/06 08:58:54;;;;;;;7.10;5.15;;;;;;;19.82;66.04;102548.13;5025433;28;20041;-76
2022/05/06 09:01:21;;;;;;;8.35;5.50;;;;;;;20.47;62.15;102526.47;5005164;28;20279;-76
2022/05/06 09:03:48;;;;;;;6.88;4.60;;;;;;;21.68;59.56;102551.03;5016652;28;20503;-75
2022/05/06 09:06:27;;;;;;;4.57;3.92;;;;;;;23.39;55.21;102545.31;5011924;28;20473;-76
2022/05/06 09:08:56;;;;;;;6.13;4.30;;;;;;;24.44;52.61;102534.59;5017268;28;20031;-76
2022/05/06 09:12:40;;;;;;;4.57;4.05;;;;;;;25.09;50.64;102539.59;5018589;28;20390;-76
2022/05/06 09:14:17;;;;;;;5.32;4.35;;;;;;;26.05;48.71;102547.25;5024800;28;20397;-76
2022/05/06 09:16:44;;;;;;;6.38;4.40;;;;;;;24.59;49.67;102546.09;5009664;28;20168;-76
2022/05/06 09:19:23;;;;;;;4.15;3.47;;;;;;;25.61;50.02;102544.19;5015437;28;20493;-76
2022/05/06 09:22:05;;;;;;;5.25;3.33;;;;;;;26.33;47.69;102546.97;5015383;28;20022;-76
2022/05/06 09:24:32;;;;;;;4.30;3.50;;;;;;;27.67;46.60;102536.09;5014641;28;20033;-76
2022/05/06 09:27:09;;;;;;;4.10;3.55;;;;;;;27.94;44.59;102538.56;5010087;28;20394;-75
2022/05/06 09:29:38;;;;;;;4.32;3.92;;;;;;;26.86;45.25;102545.88;5016354;28;20441;-76
2022/05/06 09:32:26;;;;;;;4.10;3.20;;;;;;;28.07;43.65;102524.84;5023025;28;20045;-76
2022/05/06 09:34:56;;;;;;;4.80;3.78;;;;;;;26.65;45.43;102545.19;5015372;28;20028;-76
2022/05/06 09:37:36;;;;;;;3.75;3.15;;;;;;;28.26;44.43;102545.47;5002913;28;20023;-76
2022/05/06 09:40:13;;;;;;;3.53;3.22;;;;;;;27.22;44.87;102538.97;5010296;28;20026;-76
2022/05/06 09:42:44;;;;;;;4.93;3.40;;;;;;;23.93;50.13;102540.34;5015102;28;20113;-76
2022/05/06 09:45:12;;;;;;;4.60;3.40;;;;;;;23.16;52.60;102520.44;5023767;28;20039;-76
2022/05/06 09:47:39;;;;;;;3.90;3.50;;;;;;;21.93;53.95;102533.63;5027534;28;20029;-77
2022/05/06 09:50:07;;;;;;;4.13;3.72;;;;;;;21.85;54.13;102531.03;5025653;28;20068;-76
2022/05/06 09:52:33;;;;;;;3.92;3.50;;;;;;;22.36;55.25;102523.09;5017190;28;21378;-78
2022/05/06 09:55:00;;;;;;;4.43;3.58;;;;;;;22.59;55.42;102527.50;5017026;28;20029;-77
2022/05/06 09:57:26;;;;;;;4.57;4.07;;;;;;;23.50;51.59;102508.09;5026844;28;20029;-77
2022/05/06 09:59:52;;;;;;;4.18;3.40;;;;;;;24.39;51.38;102528.97;5020962;28;20033;-76
2022/05/06 10:02:20;;;;;;;4.20;3.60;;;;;;;25.24;48.43;102519.47;5019101;28;20079;-77
2022/05/06 10:04:49;;;;;;;5.43;3.03;;;;;;;25.69;48.46;102526.91;5007434;28;20022;-77
2022/05/06 10:07:16;;;;;;;4.03;3.63;;;;;;;27.58;45.82;102521.16;5018518;28;20034;-75
2022/05/06 10:09:52;;;;;;;5.07;3.95;;;;;;;27.24;44.22;102507.06;5026068;28;20152;-75
2022/05/06 10:12:20;;;;;;;4.63;3.72;;;;;;;25.63;45.60;102520.47;5011773;28;20029;-76
2022/05/06 10:14:46;;;;;;;5.47;3.53;;;;;;;25.01;47.15;102527.09;5011451;28;20029;-77
2022/05/06 10:17:11;;;;;;;3.85;3.17;;;;;;;27.16;44.87;102508.16;5024941;28;20026;-76
2022/05/06 10:19:36;;;;;;;7.25;4.53;;;;;;;25.93;45.15;102516.50;4999876;28;20022;-76
2022/05/06 10:22:02;;;;;;;5.03;4.30;;;;;;;26.26;45.76;102519.94;5018225;28;20025;-76
2022/05/06 10:24:38;;;;;;;5.18;4.03;;;;;;;28.37;43.40;102505.03;5016803;28;20030;-75
2022/05/06 10:32:25;;;;;;;4.22;3.83;;;;;;;25.95;44.40;102506.28;5002569;28;20026;-76
2022/05/06 10:33:14;;;;;;;4.18;2.83;;;;;;;27.35;45.62;102494.69;4989628;28;20135;-76
2022/05/06 10:35:42;;;;;;;4.57;3.25;;;;;;;28.41;42.40;102503.53;5025026;28;20489;-76
2022/05/06 10:38:27;;;;;;;3.95;3.33;;;;;;;28.38;42.03;102504.00;5017173;28;20033;-75
2022/05/06 10:40:57;;;;;;;4.40;3.10;;;;;;;27.18;45.57;102495.22;5013472;28;20207;-75
2022/05/06 10:43:41;;;;;;;4.50;3.58;;;;;;;29.79;41.69;102504.28;5006871;28;20482;-75
2022/05/06 10:46:07;;;;;;;5.07;3.80;;;;;;;25.81;43.75;102492.78;5020766;28;20541;-75
2022/05/06 10:48:32;;;;;;;3.90;3.50;;;;;;;25.37;45.94;102480.78;5006384;28;20023;-75
2022/05/06 10:51:27;;;;;;;4.75;4.18;;;;;;;24.24;48.69;102480.56;5019347;28;20052;-75
2022/05/06 10:53:53;;;;;;;4.82;4.30;;;;;;;24.51;47.70;102476.09;5011144;28;20030;-77
2022/05/06 10:56:21;;;;;;;3.90;3.15;;;;;;;27.92;45.40;102499.97;5023366;28;20456;-78
2022/05/06 10:58:55;;;;;;;4.18;3.42;;;;;;;28.22;41.73;102484.59;5024230;28;20026;-77
2022/05/06 11:01:24;;;;;;;4.72;3.55;;;;;;;27.42;41.92;102490.88;4998210;28;20085;-77
2022/05/06 11:03:53;;;;;;;5.90;3.20;;;;;;;28.83;39.98;102490.84;5016765;28;20021;-75
2022/05/06 11:06:23;;;;;;;3.47;2.95;;;;;;;30.70;37.78;102487.28;5021230;28;20025;-76
2022/05/06 11:08:48;;;;;;;4.28;3.55;;;;;;;30.21;38.54;102493.16;5012977;28;20527;-76
2022/05/06 11:11:19;;;;;;;6.05;3.83;;;;;;;28.42;42.04;102483.47;4994080;28;20018;-76
2022/05/06 11:13:47;;;;;;;4.10;3.13;;;;;;;30.51;36.91;102497.59;5007574;28;20040;-76
2022/05/06 11:16:15;;;;;;;5.45;3.53;;;;;;;27.90;40.10;102486.63;5017876;28;20036;-76
2022/05/06 11:18:43;;;;;;;5.20;3.33;;;;;;;28.22;42.50;102490.00;5012053;28;20042;-76
2022/05/06 11:21:22;;;;;;;3.78;2.60;;;;;;;29.89;38.40;102493.59;5017048;28;20030;-76
2022/05/06 11:23:48;;;;;;;3.13;2.70;;;;;;;28.89;39.44;102472.75;5018762;28;20128;-76
2022/05/06 11:26:26;;;;;;;3.05;2.60;;;;;;;30.46;38.69;102478.41;5021087;28;20359;-76
2022/05/06 11:29:04;;;;;;;3.35;2.55;;;;;;;31.46;37.56;102473.25;5024175;28;20030;-76
2022/05/06 11:31:30;;;;;;;2.35;1.90;;;;;;;32.87;36.60;102476.22;5012906;28;20397;-76
2022/05/06 11:33:58;;;;;;;2.47;2.00;;;;;;;33.87;34.85;102472.75;5018455;28;20021;-76
2022/05/06 11:36:24;;;;;;;2.72;2.05;;;;;;;34.24;32.79;102472.59;5014089;28;20042;-76
2022/05/06 11:38:49;;;;;;;2.90;2.30;;;;;;;34.66;34.14;102468.00;5019677;28;20440;-76
2022/05/06 11:41:16;;;;;;;2.20;1.83;;;;;;;34.61;33.50;102477.03;5015571;28;20088;-76
2022/05/06 11:43:43;;;;;;;2.65;1.67;;;;;;;35.12;33.51;102474.25;5017904;28;20025;-76
2022/05/06 11:49:00;;;;;;;5.43;2.50;;;;;;;34.74;32.04;102473.75;5013934;28;20397;-76
2022/05/06 11:51:45;;;;;;;3.08;2.00;;;;;;;35.16;32.18;102458.09;5012345;28;20054;-76
2022/05/06 11:54:14;;;;;;;5.50;2.38;;;;;;;34.03;33.49;102466.19;5008645;28;20073;-76